sensor_id;sensor_type;location;lat;lon;timestamp;temperature;humidity
55711;DHT22;41612;51.994;5.880;2024-03-07T00:02:20;7.20;88.20
55711;DHT22;41612;51.994;5.880;2024-03-07T00:04:46;7.10;88.10
55711;DHT22;41612;51.994;5.880;2024-03-07T00:07:12;7.10;88.10
55711;DHT22;41612;51.994;5.880;2024-03-07T00:09:37;7.00;88.10
55711;DHT22;41612;51.994;5.880;2024-03-07T00:12:07;7.00;88.00
55711;DHT22;41612;51.994;5.880;2024-03-07T00:14:35;7.00;88.20
55711;DHT22;41612;51.994;5.880;2024-03-07T00:17:01;7.00;88.30
55711;DHT22;41612;51.994;5.880;2024-03-07T00:19:28;7.00;88.40
55711;DHT22;41612;51.994;5.880;2024-03-07T00:21:56;7.00;88.40
55711;DHT22;41612;51.994;5.880;2024-03-07T00:24:22;7.00;88.50
55711;DHT22;41612;51.994;5.880;2024-03-07T00:26:48;6.90;88.60
55711;DHT22;41612;51.994;5.880;2024-03-07T00:29:18;7.00;88.60
55711;DHT22;41612;51.994;5.880;2024-03-07T00:31:47;6.90;88.60
55711;DHT22;41612;51.994;5.880;2024-03-07T00:34:13;6.90;88.60
55711;DHT22;41612;51.994;5.880;2024-03-07T00:36:42;6.90;88.60
55711;DHT22;41612;51.994;5.880;2024-03-07T00:39:08;6.80;88.50
55711;DHT22;41612;51.994;5.880;2024-03-07T00:41:40;6.80;88.40
55711;DHT22;41612;51.994;5.880;2024-03-07T00:44:08;6.80;88.30
55711;DHT22;41612;51.994;5.880;2024-03-07T00:46:35;6.80;88.50
55711;DHT22;41612;51.994;5.880;2024-03-07T00:49:02;6.80;88.70
55711;DHT22;41612;51.994;5.880;2024-03-07T00:51:28;6.70;88.80
55711;DHT22;41612;51.994;5.880;2024-03-07T00:53:54;6.70;88.90
55711;DHT22;41612;51.994;5.880;2024-03-07T00:56:20;6.70;88.90
55711;DHT22;41612;51.994;5.880;2024-03-07T00:58:48;6.70;88.90
55711;DHT22;41612;51.994;5.880;2024-03-07T01:01:13;6.70;89.00
55711;DHT22;41612;51.994;5.880;2024-03-07T01:03:41;6.70;89.00
55711;DHT22;41612;51.994;5.880;2024-03-07T01:06:09;6.70;88.90
55711;DHT22;41612;51.994;5.880;2024-03-07T01:08:36;6.70;88.90
55711;DHT22;41612;51.994;5.880;2024-03-07T01:11:03;6.70;88.90
55711;DHT22;41612;51.994;5.880;2024-03-07T01:13:39;6.60;88.70
55711;DHT22;41612;51.994;5.880;2024-03-07T01:16:05;6.60;88.80
55711;DHT22;41612;51.994;5.880;2024-03-07T01:18:31;6.60;88.90
55711;DHT22;41612;51.994;5.880;2024-03-07T01:21:03;6.60;88.90
55711;DHT22;41612;51.994;5.880;2024-03-07T01:23:31;6.60;88.90
55711;DHT22;41612;51.994;5.880;2024-03-07T01:25:57;6.50;88.90
55711;DHT22;41612;51.994;5.880;2024-03-07T01:28:24;6.50;88.90
55711;DHT22;41612;51.994;5.880;2024-03-07T01:30:50;6.50;88.70
55711;DHT22;41612;51.994;5.880;2024-03-07T01:33:16;6.50;88.60
55711;DHT22;41612;51.994;5.880;2024-03-07T01:35:42;6.50;88.60
55711;DHT22;41612;51.994;5.880;2024-03-07T01:38:08;6.50;88.50
55711;DHT22;41612;51.994;5.880;2024-03-07T01:40:40;6.50;88.40
55711;DHT22;41612;51.994;5.880;2024-03-07T01:43:07;6.40;88.50
55711;DHT22;41612;51.994;5.880;2024-03-07T01:45:32;6.40;88.60
55711;DHT22;41612;51.994;5.880;2024-03-07T01:47:58;6.40;88.60
55711;DHT22;41612;51.994;5.880;2024-03-07T01:50:24;6.40;88.60
55711;DHT22;41612;51.994;5.880;2024-03-07T01:52:50;6.40;88.90
55711;DHT22;41612;51.994;5.880;2024-03-07T01:55:17;6.40;89.00
55711;DHT22;41612;51.994;5.880;2024-03-07T01:57:43;6.40;89.20
55711;DHT22;41612;51.994;5.880;2024-03-07T02:00:11;6.30;89.20
55711;DHT22;41612;51.994;5.880;2024-03-07T02:02:37;6.40;89.30
55711;DHT22;41612;51.994;5.880;2024-03-07T02:05:03;6.40;89.30
55711;DHT22;41612;51.994;5.880;2024-03-07T02:07:30;6.40;89.30
55711;DHT22;41612;51.994;5.880;2024-03-07T02:10:05;6.30;89.20
55711;DHT22;41612;51.994;5.880;2024-03-07T02:12:31;6.30;89.30
55711;DHT22;41612;51.994;5.880;2024-03-07T02:14:57;6.30;89.20
55711;DHT22;41612;51.994;5.880;2024-03-07T02:17:27;6.30;89.20
55711;DHT22;41612;51.994;5.880;2024-03-07T02:19:52;6.30;89.20
55711;DHT22;41612;51.994;5.880;2024-03-07T02:22:21;6.30;89.20
55711;DHT22;41612;51.994;5.880;2024-03-07T02:24:47;6.20;89.20
55711;DHT22;41612;51.994;5.880;2024-03-07T02:27:13;6.20;89.30
55711;DHT22;41612;51.994;5.880;2024-03-07T02:29:42;6.20;89.20
55711;DHT22;41612;51.994;5.880;2024-03-07T02:32:08;6.20;89.10
55711;DHT22;41612;51.994;5.880;2024-03-07T02:34:35;6.20;88.80
55711;DHT22;41612;51.994;5.880;2024-03-07T02:37:01;6.20;88.80
55711;DHT22;41612;51.994;5.880;2024-03-07T02:39:28;6.20;88.80
55711;DHT22;41612;51.994;5.880;2024-03-07T02:41:53;6.20;88.90
55711;DHT22;41612;51.994;5.880;2024-03-07T02:44:19;6.20;89.00
55711;DHT22;41612;51.994;5.880;2024-03-07T02:46:45;6.20;89.30
55711;DHT22;41612;51.994;5.880;2024-03-07T02:49:15;6.20;89.40
55711;DHT22;41612;51.994;5.880;2024-03-07T02:51:41;6.10;89.40
55711;DHT22;41612;51.994;5.880;2024-03-07T02:54:11;6.10;89.40
55711;DHT22;41612;51.994;5.880;2024-03-07T02:56:37;6.10;89.40
55711;DHT22;41612;51.994;5.880;2024-03-07T02:59:03;6.10;89.40
55711;DHT22;41612;51.994;5.880;2024-03-07T03:01:29;6.10;89.30
55711;DHT22;41612;51.994;5.880;2024-03-07T03:03:54;6.10;89.40
55711;DHT22;41612;51.994;5.880;2024-03-07T03:06:20;6.10;89.40
55711;DHT22;41612;51.994;5.880;2024-03-07T03:08:46;6.10;89.40
55711;DHT22;41612;51.994;5.880;2024-03-07T03:11:12;6.20;89.40
55711;DHT22;41612;51.994;5.880;2024-03-07T03:13:42;6.10;89.20
55711;DHT22;41612;51.994;5.880;2024-03-07T03:16:08;6.10;89.20
55711;DHT22;41612;51.994;5.880;2024-03-07T03:18:35;6.10;89.10
55711;DHT22;41612;51.994;5.880;2024-03-07T03:21:02;6.00;89.10
55711;DHT22;41612;51.994;5.880;2024-03-07T03:23:28;6.00;89.10
55711;DHT22;41612;51.994;5.880;2024-03-07T03:25:55;6.00;89.10
55711;DHT22;41612;51.994;5.880;2024-03-07T03:28:22;6.00;89.10
55711;DHT22;41612;51.994;5.880;2024-03-07T03:30:50;6.00;89.10
55711;DHT22;41612;51.994;5.880;2024-03-07T03:33:17;6.00;89.20
55711;DHT22;41612;51.994;5.880;2024-03-07T03:35:43;6.00;89.20
55711;DHT22;41612;51.994;5.880;2024-03-07T03:38:10;5.90;89.30
55711;DHT22;41612;51.994;5.880;2024-03-07T03:40:36;5.90;89.30
55711;DHT22;41612;51.994;5.880;2024-03-07T03:43:02;5.80;89.40
55711;DHT22;41612;51.994;5.880;2024-03-07T03:45:28;5.80;89.40
55711;DHT22;41612;51.994;5.880;2024-03-07T03:47:54;5.80;89.40
55711;DHT22;41612;51.994;5.880;2024-03-07T03:50:23;5.70;89.40
55711;DHT22;41612;51.994;5.880;2024-03-07T03:52:52;5.70;89.40
55711;DHT22;41612;51.994;5.880;2024-03-07T03:55:18;5.70;89.40
55711;DHT22;41612;51.994;5.880;2024-03-07T03:57:44;5.70;89.50
55711;DHT22;41612;51.994;5.880;2024-03-07T04:00:12;5.70;89.60
55711;DHT22;41612;51.994;5.880;2024-03-07T04:02:45;5.70;89.60
55711;DHT22;41612;51.994;5.880;2024-03-07T04:05:15;5.70;89.70
55711;DHT22;41612;51.994;5.880;2024-03-07T04:07:41;5.60;89.60
55711;DHT22;41612;51.994;5.880;2024-03-07T04:10:11;5.60;89.70
55711;DHT22;41612;51.994;5.880;2024-03-07T04:12:38;5.60;89.70
55711;DHT22;41612;51.994;5.880;2024-03-07T04:15:07;5.60;89.60
55711;DHT22;41612;51.994;5.880;2024-03-07T04:17:36;5.50;89.60
55711;DHT22;41612;51.994;5.880;2024-03-07T04:20:03;5.50;89.80
55711;DHT22;41612;51.994;5.880;2024-03-07T04:22:33;5.50;89.80
55711;DHT22;41612;51.994;5.880;2024-03-07T04:25:00;5.50;89.80
55711;DHT22;41612;51.994;5.880;2024-03-07T04:27:27;5.50;89.70
55711;DHT22;41612;51.994;5.880;2024-03-07T04:29:56;5.50;89.70
55711;DHT22;41612;51.994;5.880;2024-03-07T04:32:21;5.50;89.70
55711;DHT22;41612;51.994;5.880;2024-03-07T04:34:47;5.50;89.80
55711;DHT22;41612;51.994;5.880;2024-03-07T04:37:14;5.50;89.70
55711;DHT22;41612;51.994;5.880;2024-03-07T04:39:40;5.50;89.80
55711;DHT22;41612;51.994;5.880;2024-03-07T04:42:09;5.40;89.80
55711;DHT22;41612;51.994;5.880;2024-03-07T04:44:36;5.40;89.80
55711;DHT22;41612;51.994;5.880;2024-03-07T04:47:03;5.40;89.80
55711;DHT22;41612;51.994;5.880;2024-03-07T04:49:30;5.40;89.80
55711;DHT22;41612;51.994;5.880;2024-03-07T04:51:57;5.40;89.80
55711;DHT22;41612;51.994;5.880;2024-03-07T04:54:24;5.30;89.80
55711;DHT22;41612;51.994;5.880;2024-03-07T04:56:52;5.30;89.80
55711;DHT22;41612;51.994;5.880;2024-03-07T04:59:19;5.30;89.70
55711;DHT22;41612;51.994;5.880;2024-03-07T05:01:46;5.30;89.80
55711;DHT22;41612;51.994;5.880;2024-03-07T05:04:13;5.20;89.70
55711;DHT22;41612;51.994;5.880;2024-03-07T05:06:42;5.30;89.70
55711;DHT22;41612;51.994;5.880;2024-03-07T05:09:09;5.20;89.70
55711;DHT22;41612;51.994;5.880;2024-03-07T05:11:39;5.20;89.60
55711;DHT22;41612;51.994;5.880;2024-03-07T05:14:05;5.20;89.70
55711;DHT22;41612;51.994;5.880;2024-03-07T05:16:31;5.20;89.70
55711;DHT22;41612;51.994;5.880;2024-03-07T05:18:57;5.20;89.90
55711;DHT22;41612;51.994;5.880;2024-03-07T05:21:26;5.10;89.90
55711;DHT22;41612;51.994;5.880;2024-03-07T05:24:01;5.20;89.80
55711;DHT22;41612;51.994;5.880;2024-03-07T05:26:29;5.20;90.00
55711;DHT22;41612;51.994;5.880;2024-03-07T05:29:09;5.10;90.10
55711;DHT22;41612;51.994;5.880;2024-03-07T05:31:40;5.10;90.10
55711;DHT22;41612;51.994;5.880;2024-03-07T05:34:18;5.10;90.20
55711;DHT22;41612;51.994;5.880;2024-03-07T05:36:49;5.10;90.10
55711;DHT22;41612;51.994;5.880;2024-03-07T05:39:20;5.10;90.20
55711;DHT22;41612;51.994;5.880;2024-03-07T05:41:49;5.10;90.20
55711;DHT22;41612;51.994;5.880;2024-03-07T05:44:19;5.10;90.20
55711;DHT22;41612;51.994;5.880;2024-03-07T05:46:45;5.00;90.20
55711;DHT22;41612;51.994;5.880;2024-03-07T05:49:14;5.00;90.10
55711;DHT22;41612;51.994;5.880;2024-03-07T05:51:42;5.00;90.10
55711;DHT22;41612;51.994;5.880;2024-03-07T05:54:17;5.00;90.00
55711;DHT22;41612;51.994;5.880;2024-03-07T05:56:43;5.00;90.00
55711;DHT22;41612;51.994;5.880;2024-03-07T05:59:11;5.00;90.00
55711;DHT22;41612;51.994;5.880;2024-03-07T06:01:49;4.90;90.00
55711;DHT22;41612;51.994;5.880;2024-03-07T06:04:16;4.90;90.00
55711;DHT22;41612;51.994;5.880;2024-03-07T06:06:44;4.90;90.00
55711;DHT22;41612;51.994;5.880;2024-03-07T06:09:16;4.80;90.00
55711;DHT22;41612;51.994;5.880;2024-03-07T06:11:55;4.80;90.00
55711;DHT22;41612;51.994;5.880;2024-03-07T06:14:25;4.80;90.20
55711;DHT22;41612;51.994;5.880;2024-03-07T06:16:53;4.80;90.20
55711;DHT22;41612;51.994;5.880;2024-03-07T06:19:19;4.80;90.20
55711;DHT22;41612;51.994;5.880;2024-03-07T06:21:54;4.80;90.30
55711;DHT22;41612;51.994;5.880;2024-03-07T06:24:27;4.80;90.30
55711;DHT22;41612;51.994;5.880;2024-03-07T06:26:55;4.80;90.30
55711;DHT22;41612;51.994;5.880;2024-03-07T06:29:29;4.80;90.30
55711;DHT22;41612;51.994;5.880;2024-03-07T06:32:01;4.80;90.30
55711;DHT22;41612;51.994;5.880;2024-03-07T06:34:29;4.80;90.30
55711;DHT22;41612;51.994;5.880;2024-03-07T06:36:59;4.80;90.30
55711;DHT22;41612;51.994;5.880;2024-03-07T06:39:37;4.80;90.30
55711;DHT22;41612;51.994;5.880;2024-03-07T06:42:08;4.80;90.30
55711;DHT22;41612;51.994;5.880;2024-03-07T06:44:38;4.80;90.30
55711;DHT22;41612;51.994;5.880;2024-03-07T06:47:09;4.80;90.30
55711;DHT22;41612;51.994;5.880;2024-03-07T06:49:35;4.80;90.20
55711;DHT22;41612;51.994;5.880;2024-03-07T06:52:04;4.80;90.20
55711;DHT22;41612;51.994;5.880;2024-03-07T06:54:30;4.80;90.30
55711;DHT22;41612;51.994;5.880;2024-03-07T06:56:56;4.80;90.30
55711;DHT22;41612;51.994;5.880;2024-03-07T06:59:21;4.80;90.20
55711;DHT22;41612;51.994;5.880;2024-03-07T07:01:54;4.80;90.20
55711;DHT22;41612;51.994;5.880;2024-03-07T07:04:23;4.80;90.20
55711;DHT22;41612;51.994;5.880;2024-03-07T07:06:53;4.90;90.20
55711;DHT22;41612;51.994;5.880;2024-03-07T07:09:18;4.90;90.20
55711;DHT22;41612;51.994;5.880;2024-03-07T07:11:44;4.90;90.10
55711;DHT22;41612;51.994;5.880;2024-03-07T07:14:11;5.00;90.10
55711;DHT22;41612;51.994;5.880;2024-03-07T07:16:40;5.00;90.10
55711;DHT22;41612;51.994;5.880;2024-03-07T07:19:11;5.00;90.00
55711;DHT22;41612;51.994;5.880;2024-03-07T07:21:39;5.00;90.00
55711;DHT22;41612;51.994;5.880;2024-03-07T07:24:07;5.10;89.90
55711;DHT22;41612;51.994;5.880;2024-03-07T07:26:38;5.10;89.80
55711;DHT22;41612;51.994;5.880;2024-03-07T07:29:09;5.20;89.70
55711;DHT22;41612;51.994;5.880;2024-03-07T07:31:42;5.20;89.60
55711;DHT22;41612;51.994;5.880;2024-03-07T07:34:14;5.20;89.40
55711;DHT22;41612;51.994;5.880;2024-03-07T07:37:05;5.20;89.40
55711;DHT22;41612;51.994;5.880;2024-03-07T07:39:40;5.30;89.30
55711;DHT22;41612;51.994;5.880;2024-03-07T07:42:09;5.30;89.20
55711;DHT22;41612;51.994;5.880;2024-03-07T07:44:37;5.30;89.00
55711;DHT22;41612;51.994;5.880;2024-03-07T07:47:06;5.40;88.90
55711;DHT22;41612;51.994;5.880;2024-03-07T07:49:31;5.50;88.80
55711;DHT22;41612;51.994;5.880;2024-03-07T07:51:57;5.50;88.60
55711;DHT22;41612;51.994;5.880;2024-03-07T07:54:23;5.50;88.60
55711;DHT22;41612;51.994;5.880;2024-03-07T07:56:50;5.60;88.40
55711;DHT22;41612;51.994;5.880;2024-03-07T07:59:16;5.70;88.20
55711;DHT22;41612;51.994;5.880;2024-03-07T08:01:42;5.80;87.80
55711;DHT22;41612;51.994;5.880;2024-03-07T08:04:08;5.80;87.60
55711;DHT22;41612;51.994;5.880;2024-03-07T08:06:38;5.90;87.20
55711;DHT22;41612;51.994;5.880;2024-03-07T08:09:04;6.00;86.70
55711;DHT22;41612;51.994;5.880;2024-03-07T08:11:35;6.00;86.80
55711;DHT22;41612;51.994;5.880;2024-03-07T08:14:02;6.10;86.60
55711;DHT22;41612;51.994;5.880;2024-03-07T08:16:28;6.20;85.90
55711;DHT22;41612;51.994;5.880;2024-03-07T08:18:55;6.20;85.80
55711;DHT22;41612;51.994;5.880;2024-03-07T08:21:21;6.20;85.50
55711;DHT22;41612;51.994;5.880;2024-03-07T08:23:49;6.30;85.10
55711;DHT22;41612;51.994;5.880;2024-03-07T08:26:17;6.30;84.90
55711;DHT22;41612;51.994;5.880;2024-03-07T08:28:45;6.30;85.10
55711;DHT22;41612;51.994;5.880;2024-03-07T08:31:13;6.40;84.80
55711;DHT22;41612;51.994;5.880;2024-03-07T08:33:39;6.40;85.20
55711;DHT22;41612;51.994;5.880;2024-03-07T08:36:07;6.50;84.90
55711;DHT22;41612;51.994;5.880;2024-03-07T08:38:35;6.60;84.70
55711;DHT22;41612;51.994;5.880;2024-03-07T08:41:05;6.70;84.80
55711;DHT22;41612;51.994;5.880;2024-03-07T08:43:40;6.70;84.60
55711;DHT22;41612;51.994;5.880;2024-03-07T08:46:08;6.80;84.40
55711;DHT22;41612;51.994;5.880;2024-03-07T08:48:34;6.90;84.30
55711;DHT22;41612;51.994;5.880;2024-03-07T08:51:03;7.00;83.40
55711;DHT22;41612;51.994;5.880;2024-03-07T08:53:34;7.00;83.50
55711;DHT22;41612;51.994;5.880;2024-03-07T08:56:05;7.10;82.80
55711;DHT22;41612;51.994;5.880;2024-03-07T08:58:37;7.20;83.20
55711;DHT22;41612;51.994;5.880;2024-03-07T09:01:15;7.20;81.50
55711;DHT22;41612;51.994;5.880;2024-03-07T09:03:44;7.30;82.20
55711;DHT22;41612;51.994;5.880;2024-03-07T09:06:09;7.30;83.10
55711;DHT22;41612;51.994;5.880;2024-03-07T09:08:55;7.40;82.80
55711;DHT22;41612;51.994;5.880;2024-03-07T09:11:21;7.50;83.20
55711;DHT22;41612;51.994;5.880;2024-03-07T09:13:51;7.50;81.10
55711;DHT22;41612;51.994;5.880;2024-03-07T09:16:17;7.60;81.70
55711;DHT22;41612;51.994;5.880;2024-03-07T09:18:46;7.70;81.10
55711;DHT22;41612;51.994;5.880;2024-03-07T09:21:12;7.80;79.60
55711;DHT22;41612;51.994;5.880;2024-03-07T09:23:37;7.90;80.10
55711;DHT22;41612;51.994;5.880;2024-03-07T09:26:06;8.00;79.60
55711;DHT22;41612;51.994;5.880;2024-03-07T09:28:34;8.20;81.10
55711;DHT22;41612;51.994;5.880;2024-03-07T09:31:08;8.20;79.20
55711;DHT22;41612;51.994;5.880;2024-03-07T09:33:36;8.30;78.90
55711;DHT22;41612;51.994;5.880;2024-03-07T09:36:04;8.50;77.60
55711;DHT22;41612;51.994;5.880;2024-03-07T09:38:30;8.50;77.50
55711;DHT22;41612;51.994;5.880;2024-03-07T09:41:00;8.70;78.40
55711;DHT22;41612;51.994;5.880;2024-03-07T09:43:28;8.80;76.40
55711;DHT22;41612;51.994;5.880;2024-03-07T09:46:02;8.80;78.60
55711;DHT22;41612;51.994;5.880;2024-03-07T09:48:28;9.00;78.60
55711;DHT22;41612;51.994;5.880;2024-03-07T09:50:55;9.20;75.80
55711;DHT22;41612;51.994;5.880;2024-03-07T09:53:24;9.30;74.50
55711;DHT22;41612;51.994;5.880;2024-03-07T09:55:54;9.30;75.20
55711;DHT22;41612;51.994;5.880;2024-03-07T09:58:25;9.50;77.60
55711;DHT22;41612;51.994;5.880;2024-03-07T10:00:56;9.70;77.60
55711;DHT22;41612;51.994;5.880;2024-03-07T10:03:29;10.00;77.30
55711;DHT22;41612;51.994;5.880;2024-03-07T10:06:00;10.20;76.40
55711;DHT22;41612;51.994;5.880;2024-03-07T10:08:34;10.30;71.60
55711;DHT22;41612;51.994;5.880;2024-03-07T10:11:06;10.60;73.90
55711;DHT22;41612;51.994;5.880;2024-03-07T10:13:36;10.80;71.70
55711;DHT22;41612;51.994;5.880;2024-03-07T10:16:08;10.80;68.50
55711;DHT22;41612;51.994;5.880;2024-03-07T10:18:45;11.00;71.40
55711;DHT22;41612;51.994;5.880;2024-03-07T10:21:14;11.00;69.10
55711;DHT22;41612;51.994;5.880;2024-03-07T10:23:39;11.20;68.80
55711;DHT22;41612;51.994;5.880;2024-03-07T10:26:06;11.20;68.90
55711;DHT22;41612;51.994;5.880;2024-03-07T10:28:32;11.30;71.50
55711;DHT22;41612;51.994;5.880;2024-03-07T10:30:59;11.60;71.40
55711;DHT22;41612;51.994;5.880;2024-03-07T10:33:39;11.80;68.40
55711;DHT22;41612;51.994;5.880;2024-03-07T10:36:06;11.90;67.70
55711;DHT22;41612;51.994;5.880;2024-03-07T10:38:37;11.90;65.90
55711;DHT22;41612;51.994;5.880;2024-03-07T10:41:06;11.90;62.20
55711;DHT22;41612;51.994;5.880;2024-03-07T10:43:36;11.80;62.50
55711;DHT22;41612;51.994;5.880;2024-03-07T10:46:05;11.70;64.80
55711;DHT22;41612;51.994;5.880;2024-03-07T10:48:40;11.80;63.90
55711;DHT22;41612;51.994;5.880;2024-03-07T10:51:18;12.00;63.60
55711;DHT22;41612;51.994;5.880;2024-03-07T10:54:13;12.10;58.10
55711;DHT22;41612;51.994;5.880;2024-03-07T10:57:05;12.30;62.00
55711;DHT22;41612;51.994;5.880;2024-03-07T10:59:42;12.60;60.70
55711;DHT22;41612;51.994;5.880;2024-03-07T11:02:27;12.60;60.50
55711;DHT22;41612;51.994;5.880;2024-03-07T11:04:58;12.80;60.20
55711;DHT22;41612;51.994;5.880;2024-03-07T11:07:27;12.70;60.10
55711;DHT22;41612;51.994;5.880;2024-03-07T11:09:55;12.70;57.60
55711;DHT22;41612;51.994;5.880;2024-03-07T11:12:25;12.70;60.00
55711;DHT22;41612;51.994;5.880;2024-03-07T11:14:59;12.70;61.00
55711;DHT22;41612;51.994;5.880;2024-03-07T11:17:31;12.70;61.00
55711;DHT22;41612;51.994;5.880;2024-03-07T11:20:23;12.80;60.60
55711;DHT22;41612;51.994;5.880;2024-03-07T11:22:52;12.80;58.30
55711;DHT22;41612;51.994;5.880;2024-03-07T11:25:23;12.80;55.30
55711;DHT22;41612;51.994;5.880;2024-03-07T11:30:35;12.60;51.80
55711;DHT22;41612;51.994;5.880;2024-03-07T11:33:09;12.70;56.00
55711;DHT22;41612;51.994;5.880;2024-03-07T11:35:37;12.50;60.20
55711;DHT22;41612;51.994;5.880;2024-03-07T11:38:08;12.70;61.80
55711;DHT22;41612;51.994;5.880;2024-03-07T11:43:07;13.10;53.60
55711;DHT22;41612;51.994;5.880;2024-03-07T11:45:36;13.20;58.40
55711;DHT22;41612;51.994;5.880;2024-03-07T11:48:16;13.50;57.30
55711;DHT22;41612;51.994;5.880;2024-03-07T11:50:47;13.80;56.70
55711;DHT22;41612;51.994;5.880;2024-03-07T11:53:16;14.00;56.50
55711;DHT22;41612;51.994;5.880;2024-03-07T11:55:43;14.40;55.90
55711;DHT22;41612;51.994;5.880;2024-03-07T11:58:18;14.70;56.40
55711;DHT22;41612;51.994;5.880;2024-03-07T12:00:48;14.90;55.60
55711;DHT22;41612;51.994;5.880;2024-03-07T12:03:16;15.20;55.30
55711;DHT22;41612;51.994;5.880;2024-03-07T12:05:48;15.40;52.70
55711;DHT22;41612;51.994;5.880;2024-03-07T12:08:14;15.50;53.50
55711;DHT22;41612;51.994;5.880;2024-03-07T12:10:41;15.30;54.00
55711;DHT22;41612;51.994;5.880;2024-03-07T12:13:12;15.80;53.80
55711;DHT22;41612;51.994;5.880;2024-03-07T12:15:42;16.20;50.40
55711;DHT22;41612;51.994;5.880;2024-03-07T12:18:09;16.40;52.70
55711;DHT22;41612;51.994;5.880;2024-03-07T12:20:37;16.40;52.70
55711;DHT22;41612;51.994;5.880;2024-03-07T12:23:07;17.10;50.80
55711;DHT22;41612;51.994;5.880;2024-03-07T12:25:38;18.30;49.10
55711;DHT22;41612;51.994;5.880;2024-03-07T12:28:05;19.70;45.20
55711;DHT22;41612;51.994;5.880;2024-03-07T12:30:35;20.70;41.30
55711;DHT22;41612;51.994;5.880;2024-03-07T12:33:02;20.70;41.60
55711;DHT22;41612;51.994;5.880;2024-03-07T12:35:36;20.30;43.20
55711;DHT22;41612;51.994;5.880;2024-03-07T12:38:02;20.10;44.70
55711;DHT22;41612;51.994;5.880;2024-03-07T12:40:29;20.00;44.00
55711;DHT22;41612;51.994;5.880;2024-03-07T12:42:59;20.20;42.90
55711;DHT22;41612;51.994;5.880;2024-03-07T12:45:28;21.00;43.30
55711;DHT22;41612;51.994;5.880;2024-03-07T12:47:56;20.90;41.40
55711;DHT22;41612;51.994;5.880;2024-03-07T12:50:23;21.00;40.10
55711;DHT22;41612;51.994;5.880;2024-03-07T12:52:52;21.80;40.90
55711;DHT22;41612;51.994;5.880;2024-03-07T12:55:18;22.20;38.60
55711;DHT22;41612;51.994;5.880;2024-03-07T12:57:45;22.80;38.10
55711;DHT22;41612;51.994;5.880;2024-03-07T13:00:11;23.50;36.20
55711;DHT22;41612;51.994;5.880;2024-03-07T13:02:53;24.20;37.30
55711;DHT22;41612;51.994;5.880;2024-03-07T13:05:31;23.70;36.80
55711;DHT22;41612;51.994;5.880;2024-03-07T13:08:00;22.20;38.60
55711;DHT22;41612;51.994;5.880;2024-03-07T13:10:30;20.80;40.40
55711;DHT22;41612;51.994;5.880;2024-03-07T13:12:59;19.80;45.10
55711;DHT22;41612;51.994;5.880;2024-03-07T13:15:33;19.30;45.90
55711;DHT22;41612;51.994;5.880;2024-03-07T13:18:04;18.60;44.30
55711;DHT22;41612;51.994;5.880;2024-03-07T13:20:34;17.80;50.00
55711;DHT22;41612;51.994;5.880;2024-03-07T13:23:00;17.20;50.90
55711;DHT22;41612;51.994;5.880;2024-03-07T13:25:36;16.90;52.80
55711;DHT22;41612;51.994;5.880;2024-03-07T13:28:10;17.00;53.00
55711;DHT22;41612;51.994;5.880;2024-03-07T13:30:43;17.20;52.10
55711;DHT22;41612;51.994;5.880;2024-03-07T13:33:10;17.00;52.40
55711;DHT22;41612;51.994;5.880;2024-03-07T13:35:38;16.50;52.20
55711;DHT22;41612;51.994;5.880;2024-03-07T13:38:08;16.20;52.60
55711;DHT22;41612;51.994;5.880;2024-03-07T13:40:36;15.90;55.90
55711;DHT22;41612;51.994;5.880;2024-03-07T13:43:08;15.80;56.70
55711;DHT22;41612;51.994;5.880;2024-03-07T13:45:35;15.70;55.60
55711;DHT22;41612;51.994;5.880;2024-03-07T13:48:05;15.50;57.40
55711;DHT22;41612;51.994;5.880;2024-03-07T13:50:33;15.40;57.70
55711;DHT22;41612;51.994;5.880;2024-03-07T13:53:00;15.70;54.80
55711;DHT22;41612;51.994;5.880;2024-03-07T13:58:47;15.00;58.30
55711;DHT22;41612;51.994;5.880;2024-03-07T14:01:40;14.20;57.50
55711;DHT22;41612;51.994;5.880;2024-03-07T14:07:39;13.00;64.20
55711;DHT22;41612;51.994;5.880;2024-03-07T14:10:44;12.60;65.60
55711;DHT22;41612;51.994;5.880;2024-03-07T14:16:33;12.30;68.00
55711;DHT22;41612;51.994;5.880;2024-03-07T14:19:50;12.30;67.40
55711;DHT22;41612;51.994;5.880;2024-03-07T14:25:59;12.20;68.50
55711;DHT22;41612;51.994;5.880;2024-03-07T14:28:51;12.30;67.80
55711;DHT22;41612;51.994;5.880;2024-03-07T14:31:20;12.60;66.80
55711;DHT22;41612;51.994;5.880;2024-03-07T14:34:17;12.50;67.70
55711;DHT22;41612;51.994;5.880;2024-03-07T14:36:53;12.50;68.40
55711;DHT22;41612;51.994;5.880;2024-03-07T14:39:22;12.30;66.30
55711;DHT22;41612;51.994;5.880;2024-03-07T14:41:58;12.50;67.90
55711;DHT22;41612;51.994;5.880;2024-03-07T14:44:28;12.80;67.50
55711;DHT22;41612;51.994;5.880;2024-03-07T14:46:58;12.90;67.00
55711;DHT22;41612;51.994;5.880;2024-03-07T14:49:26;13.00;66.50
55711;DHT22;41612;51.994;5.880;2024-03-07T14:51:53;12.90;66.40
55711;DHT22;41612;51.994;5.880;2024-03-07T14:54:22;13.00;66.80
55711;DHT22;41612;51.994;5.880;2024-03-07T14:56:48;13.30;64.80
55711;DHT22;41612;51.994;5.880;2024-03-07T14:59:14;14.10;59.10
55711;DHT22;41612;51.994;5.880;2024-03-07T15:01:49;16.20;57.60
55711;DHT22;41612;51.994;5.880;2024-03-07T15:04:15;17.60;51.90
55711;DHT22;41612;51.994;5.880;2024-03-07T15:06:41;17.80;49.00
55711;DHT22;41612;51.994;5.880;2024-03-07T15:09:11;17.30;51.60
55711;DHT22;41612;51.994;5.880;2024-03-07T15:11:39;16.70;51.00
55711;DHT22;41612;51.994;5.880;2024-03-07T15:14:11;16.10;54.70
55711;DHT22;41612;51.994;5.880;2024-03-07T15:16:37;16.40;54.70
55711;DHT22;41612;51.994;5.880;2024-03-07T15:19:12;16.50;54.00
55711;DHT22;41612;51.994;5.880;2024-03-07T15:21:41;16.40;52.40
55711;DHT22;41612;51.994;5.880;2024-03-07T15:24:30;16.70;54.40
55711;DHT22;41612;51.994;5.880;2024-03-07T15:26:56;17.10;52.60
55711;DHT22;41612;51.994;5.880;2024-03-07T15:29:23;16.90;53.00
55711;DHT22;41612;51.994;5.880;2024-03-07T15:31:49;16.80;53.10
55711;DHT22;41612;51.994;5.880;2024-03-07T15:34:15;16.90;51.90
55711;DHT22;41612;51.994;5.880;2024-03-07T15:36:43;16.90;51.80
55711;DHT22;41612;51.994;5.880;2024-03-07T15:39:09;16.70;52.90
55711;DHT22;41612;51.994;5.880;2024-03-07T15:41:46;16.20;53.80
55711;DHT22;41612;51.994;5.880;2024-03-07T15:44:14;15.50;57.10
55711;DHT22;41612;51.994;5.880;2024-03-07T15:46:45;14.90;54.80
55711;DHT22;41612;51.994;5.880;2024-03-07T15:49:17;14.40;57.90
55711;DHT22;41612;51.994;5.880;2024-03-07T15:51:43;14.70;60.40
55711;DHT22;41612;51.994;5.880;2024-03-07T15:54:11;15.20;59.40
55711;DHT22;41612;51.994;5.880;2024-03-07T15:56:38;15.40;58.10
55711;DHT22;41612;51.994;5.880;2024-03-07T15:59:10;15.40;53.40
55711;DHT22;41612;51.994;5.880;2024-03-07T16:01:56;15.70;57.70
55711;DHT22;41612;51.994;5.880;2024-03-07T16:04:24;16.60;53.30
55711;DHT22;41612;51.994;5.880;2024-03-07T16:06:53;17.20;52.00
55711;DHT22;41612;51.994;5.880;2024-03-07T16:09:19;17.90;49.10
55711;DHT22;41612;51.994;5.880;2024-03-07T16:11:48;18.30;50.20
55711;DHT22;41612;51.994;5.880;2024-03-07T16:14:15;18.40;48.20